Accueil
METAR-TAF:

METAR-TAF

Aéroports :

Alpnach, Suisse

latitude: 46-56-19N, longitude: 8-17-03E, altitude: 440 m

Observation

Le bulletin a été fait il y a 22 minutes, à 14:20 UTC
Vent 5 kt de est/nord-est
Température 3°C
Humidité 60%
Pression 1033 hPa
Visibilité 10 km ou plus
Nuages fragmentés à une hauteur de 8300 ft

METAR: LSMA 221420Z AUTO 06005KT 9999NDV BKN083 03/M04 Q1033 RMK

Heure: 15:42 (14:42 UTC)


TAF: absent

Observations et prévisions météorologiques de plus de 4000 aéroports (messages METAR et TAF).

Les stations disponibles sont représentées par des disques jaunes et rouges sur la carte.

Passer la souris dessus pour voir le nom de la station.

Cliquer dessus pour voir les observations et prévisions météorologiques.

Pour changer de carte: cliquez sur les boutons verts avec une croix noire pour zoomer, sur le bouton vert avec un tiret pour effectuer un zoom arrière, ou sur les flèches vertes pour les cartes adjacentes.


METAR-TAF: